ADB weather

Adnan Menderes International Airport
─░zmir, ─░zmir Province, Turkey

Public forecast

Using degrees Celsius for public forecast. Weather courtesy of forecast.io.

Current aviation weather report (METAR) for Adnan Menderes International Airport

Retrieved 2019/10/15 07:20 UTC (18 minutes ago):

LTBJ 150720Z 35004KT 300V040 8000 NSC 21/15 Q1017 NOSIG RMK RWY16 01006KT 340V060

Aviation forecast (TAF) for Adnan Menderes International Airport

Retrieved 2019/10/15 06:03 UTC (2 hours ago):

TAF LTBJ 150440Z 1506/1606 VRB02KT CAVOK BECMG 1508/1511 35012KT BECMG 1516/1518 VRB02KT BECMG 1604/1606 FEW030 BKN100